Aérodrome :
LOGIN :

S'inscrire | Disclaimer

   EN    FR    IT 

 










Légende :    VFR   VFR Marginal   IFR   IFR Intensif   IFR Très Intensif
Visi : 
Plafond : 
>= 8 km
>= 3000ft
5 à 8 km
1000 à 3000 ft
1500m à 5 km
500 à 1000 ft
800 à 1500m
200 à 500 ft
< 800m
< 200 ft
Symboles :   Orages  Brouillard  Fortes neiges  Fortes précipitations  Vent > 20 kt
SIGMETs :   Divers  Orages  Givrage  Turbulence  Onde Orograph.  Cendres Volcan.







- Altitude de l'aérodrome : 896 ft
- Code IATA : INZ


DAUI - in Salah

DERNIER METAR :
  • 220700Z 00000KT CAVOK 10/M04 Q1018

METARs EXPIRÉS :
  • 220600Z 00000KT CAVOK 10/M04 Q1017
  • 220500Z 00000KT CAVOK 11/M04 Q1016

TAF TAF DAUI
Valide du 22 à 06h jusqu'au 23 à 06h UTC


220500Z 2206/2306 02010KT CAVOK
Pas de NOTAMs connus pour ce terrain.
1 SIGMET publié pour la FIR Alger (DAAA) :
 
Orages noyés dans la masse
DAAA SIGMET 2 VALID 220600/220800 DAMM
DAAA ALGER FIR EMBD TS OBS WI N3732 E00430 - N3738 E00544 - N3624 E00535 - N3624 E00420 - N3732 E00430 TOP FL300 MOV S NC=



MET'MAP, la Météo Aéronautique d'un coup d'oeil ! - Copyright ORBIFLY Décembre 2007 - Disclaimer

ORBIFLY MET'MAP TEAM :

Programmation & Développement : Alexandra Zaïnal
Conception & Développement : Baudouin d'Aumeries
Co-Programmation & Développement : Marc-Olivier Méhu
Soutien technique & logistique : Manuel Goepfert

Contact : metmap@orbifly.com




SOURCES & CREDITS :

   NOAA